Check out our new BloomSky Weather System.

Active alerts

Houston, TX
  Details for Houston, TX River Flood Warning  +1 additional alert
Fort Bend, TX
  Details for Fort Bend, TX River Flood Warning  +1 additional alert


Thunder radar  blitzortung!


Rain radar more information rain snow radar


Visit our other weather sites:

Template documentation
and downloads

And another site



Weather Underground History page Text

Daily Summary for February 7, 2018 Units:  Both    English   Metric
« Previous Day
Next Day »
Daily Weekly Monthly Yearly Custom
  High: Low: Average:
Temperature: TemperatureF °F /  -17.8 °C 41.5 °F /  5.3 °C 43.3 °F /  6.3 °C
Dew Point: DewpointF °F /  -17.8 °C 40.1 °F /  4.5 °C 42.3 °F /  5.7 °C
Humidity: Humidity % 94 % 96 %
Wind Speed: WindSpeedMPH mph /  0 km/h - 4.2 mph /  6.8 km/h
Wind Gust: WindSpeedGustMPH mph /  0 km/h - -
Wind:- - WNW
Pressure: PressureIn in /  0 hPa 30.04 in /  1017.2 hPa -
Precipitation: 0.54 in /  13.72 mm    
Historical Graphs
 
 
Tabular Data for February 7, 2018
Time Temperature Dew Point Pressure Wind Wind Speed Wind Gust Humidity Rainfall Rate (Hourly)
TemperatureF °F /  -17.8 °C DewpointF °F /  -17.8 °C PressureIn in /  0 hPa Calm     Humidity % HourlyPrecipIn in /  0 mm
00:02 52.7 °F /  11.5 °C 51.6 °F /  10.9 °C 30.05 in /  1017.5 hPa NW 2.0 mph /  3.2 km/h 7.0 mph /  11.3 km/h 96 % 0.00 in /  0 mm
00:07 52.5 °F /  11.4 °C 51.4 °F /  10.8 °C 30.04 in /  1017.2 hPa NW 2.0 mph /  3.2 km/h 7.0 mph /  11.3 km/h 96 % 0.00 in /  0 mm
00:12 52.3 °F /  11.3 °C 51.4 °F /  10.8 °C 30.05 in /  1017.5 hPa NNW 5.0 mph /  8 km/h 8.0 mph /  12.9 km/h 97 % 0.00 in /  0 mm
00:17 52.0 °F /  11.1 °C 51.1 °F /  10.6 °C 30.05 in /  1017.5 hPa NW 6.0 mph /  9.7 km/h 9.0 mph /  14.5 km/h 97 % 0.00 in /  0 mm
00:22 51.8 °F /  11 °C 50.9 °F /  10.5 °C 30.05 in /  1017.5 hPa Calm   10.0 mph /  16.1 km/h 97 % 0.00 in /  0 mm
00:27 51.4 °F /  10.8 °C 50.5 °F /  10.3 °C 30.05 in /  1017.5 hPa NW 8.0 mph /  12.9 km/h 10.0 mph /  16.1 km/h 97 % 0.00 in /  0 mm
00:32 51.1 °F /  10.6 °C 50.2 °F /  10.1 °C 30.05 in /  1017.5 hPa NNW 5.0 mph /  8 km/h 11.0 mph /  17.7 km/h 97 % 0.00 in /  0 mm
00:33 50.9 °F /  10.5 °C 50.0 °F /  10 °C 30.05 in /  1017.5 hPa NW 7.0 mph /  11.3 km/h 11.0 mph /  17.7 km/h 97 % 0.00 in /  0 mm
00:38 50.5 °F /  10.3 °C 49.6 °F /  9.8 °C 30.06 in /  1017.8 hPa WNW 7.0 mph /  11.3 km/h 13.0 mph /  20.9 km/h 97 % 0.00 in /  0 mm
00:43 50.4 °F /  10.2 °C 49.8 °F /  9.9 °C 30.07 in /  1018.2 hPa WNW 4.0 mph /  6.4 km/h 13.0 mph /  20.9 km/h 98 % 0.00 in /  0 mm
00:48 50.2 °F /  10.1 °C 49.6 °F /  9.8 °C 30.07 in /  1018.2 hPa NNW 9.0 mph /  14.5 km/h 13.0 mph /  20.9 km/h 98 % 0.00 in /  0 mm
00:53 49.8 °F /  9.9 °C 49.3 °F /  9.6 °C 30.07 in /  1018.2 hPa NW 3.0 mph /  4.8 km/h 11.0 mph /  17.7 km/h 98 % 0.00 in /  0 mm
00:58 49.8 °F /  9.9 °C 49.3 °F /  9.6 °C 30.07 in /  1018.2 hPa NNW 6.0 mph /  9.7 km/h 12.0 mph /  19.3 km/h 98 % 0.00 in /  0 mm
01:03 49.6 °F /  9.8 °C 49.1 °F /  9.5 °C 30.07 in /  1018.2 hPa NNW 6.0 mph /  9.7 km/h 12.0 mph /  19.3 km/h 98 % 0.00 in /  0 mm
01:08 49.5 °F /  9.7 °C 48.9 °F /  9.4 °C 30.07 in /  1018.2 hPa NW 7.0 mph /  11.3 km/h 12.0 mph /  19.3 km/h 98 % 0.00 in /  0 mm
01:13 49.5 °F /  9.7 °C 48.9 °F /  9.4 °C 30.08 in /  1018.5 hPa NW 6.0 mph /  9.7 km/h 11.0 mph /  17.7 km/h 98 % 0.00 in /  0 mm
01:18 49.5 °F /  9.7 °C 48.9 °F /  9.4 °C 30.08 in /  1018.5 hPa North 5.0 mph /  8 km/h 9.0 mph /  14.5 km/h 98 % 0.00 in /  0 mm
01:23 49.3 °F /  9.6 °C 48.7 °F /  9.3 °C 30.08 in /  1018.5 hPa NW 4.0 mph /  6.4 km/h 9.0 mph /  14.5 km/h 98 % 0.00 in /  0 mm
01:28 48.9 °F /  9.4 °C 48.4 °F /  9.1 °C 30.08 in /  1018.5 hPa NW 8.0 mph /  12.9 km/h 8.0 mph /  12.9 km/h 98 % 0.00 in /  0 mm
01:33 48.7 °F /  9.3 °C 48.2 °F /  9 °C 30.08 in /  1018.5 hPa NW 4.0 mph /  6.4 km/h 12.0 mph /  19.3 km/h 98 % 0.00 in /  0 mm
01:38 48.6 °F /  9.2 °C 48.0 °F /  8.9 °C 30.08 in /  1018.5 hPa NNW 4.0 mph /  6.4 km/h 12.0 mph /  19.3 km/h 98 % 0.00 in /  0 mm
01:43 48.4 °F /  9.1 °C 47.8 °F /  8.8 °C 30.08 in /  1018.5 hPa NW 3.0 mph /  4.8 km/h 13.0 mph /  20.9 km/h 98 % 0.00 in /  0 mm
01:48 48.2 °F /  9 °C 47.7 °F /  8.7 °C 30.09 in /  1018.8 hPa NNW 3.0 mph /  4.8 km/h 13.0 mph /  20.9 km/h 98 % 0.00 in /  0 mm
01:53 48.0 °F /  8.9 °C 47.5 °F /  8.6 °C 30.08 in /  1018.5 hPa NNW 4.0 mph /  6.4 km/h 13.0 mph /  20.9 km/h 98 % 0.00 in /  0 mm
01:58 48.2 °F /  9 °C 48.0 °F /  8.9 °C 30.09 in /  1018.8 hPa NNW 6.0 mph /  9.7 km/h 11.0 mph /  17.7 km/h 99 % 0.00 in /  0 mm
02:03 48.0 °F /  8.9 °C 47.5 °F /  8.6 °C 30.09 in /  1018.8 hPa NNW 3.0 mph /  4.8 km/h 8.0 mph /  12.9 km/h 98 % 0.00 in /  0 mm
02:08 47.8 °F /  8.8 °C 47.3 °F /  8.5 °C 30.09 in /  1018.8 hPa NNW 7.0 mph /  11.3 km/h 9.0 mph /  14.5 km/h 98 % 0.00 in /  0 mm
02:13 47.7 °F /  8.7 °C 47.1 °F /  8.4 °C 30.09 in /  1018.8 hPa NW 4.0 mph /  6.4 km/h 11.0 mph /  17.7 km/h 98 % 0.00 in /  0 mm
02:18 47.5 °F /  8.6 °C 46.9 °F /  8.3 °C 30.10 in /  1019.2 hPa North 6.0 mph /  9.7 km/h 13.0 mph /  20.9 km/h 98 % 0.00 in /  0 mm
02:23 47.1 °F /  8.4 °C 46.4 °F /  8 °C 30.11 in /  1019.5 hPa NNW 9.0 mph /  14.5 km/h 13.0 mph /  20.9 km/h 97 % 0.00 in /  0 mm
02:28 46.8 °F /  8.2 °C 46.0 °F /  7.8 °C 30.10 in /  1019.2 hPa WNW 3.0 mph /  4.8 km/h 13.0 mph /  20.9 km/h 97 % 0.00 in /  0 mm
02:33 46.8 °F /  8.2 °C 46.0 °F /  7.8 °C 30.10 in /  1019.2 hPa North 2.0 mph /  3.2 km/h 13.0 mph /  20.9 km/h 97 % 0.00 in /  0 mm
02:39 46.6 °F /  8.1 °C 45.9 °F /  7.7 °C 30.11 in /  1019.5 hPa NNW 7.0 mph /  11.3 km/h 12.0 mph /  19.3 km/h 97 % 0.00 in /  0 mm
02:44 46.4 °F /  8 °C 45.7 °F /  7.6 °C 30.11 in /  1019.5 hPa NW 1.0 mph /  1.6 km/h 10.0 mph /  16.1 km/h 97 % 0.00 in /  0 mm
02:49 46.0 °F /  7.8 °C 45.3 °F /  7.4 °C 30.11 in /  1019.5 hPa NW 6.0 mph /  9.7 km/h 9.0 mph /  14.5 km/h 97 % 0.00 in /  0 mm
02:54 45.9 °F /  7.7 °C 45.1 °F /  7.3 °C 30.11 in /  1019.5 hPa NNW 7.0 mph /  11.3 km/h 12.0 mph /  19.3 km/h 97 % 0.00 in /  0 mm
02:59 45.7 °F /  7.6 °C 45.0 °F /  7.2 °C 30.12 in /  1019.9 hPa NNW 5.0 mph /  8 km/h 12.0 mph /  19.3 km/h 97 % 0.00 in /  0 mm
03:04 45.3 °F /  7.4 °C 44.6 °F /  7 °C 30.12 in /  1019.9 hPa WNW 4.0 mph /  6.4 km/h 12.0 mph /  19.3 km/h 97 % 0.00 in /  0 mm
03:09 45.3 °F /  7.4 °C 44.6 °F /  7 °C 30.12 in /  1019.9 hPa NNW 3.0 mph /  4.8 km/h 10.0 mph /  16.1 km/h 97 % 0.00 in /  0 mm
03:14 45.1 °F /  7.3 °C 44.4 °F /  6.9 °C 30.12 in /  1019.9 hPa NW 5.0 mph /  8 km/h 10.0 mph /  16.1 km/h 97 % 0.00 in /  0 mm
03:19 45.0 °F /  7.2 °C 44.2 °F /  6.8 °C 30.12 in /  1019.9 hPa WNW 5.0 mph /  8 km/h 10.0 mph /  16.1 km/h 97 % 0.00 in /  0 mm
03:24 44.8 °F /  7.1 °C 44.1 °F /  6.7 °C 30.12 in /  1019.9 hPa NNW 3.0 mph /  4.8 km/h 16.0 mph /  25.7 km/h 97 % 0.00 in /  0 mm
03:29 44.4 °F /  6.9 °C 43.7 °F /  6.5 °C 30.12 in /  1019.9 hPa NW 4.0 mph /  6.4 km/h 16.0 mph /  25.7 km/h 97 % 0.00 in /  0 mm
03:34 44.4 °F /  6.9 °C 43.7 °F /  6.5 °C 30.12 in /  1019.9 hPa NNW 3.0 mph /  4.8 km/h 16.0 mph /  25.7 km/h 97 % 0.00 in /  0 mm
03:39 44.2 °F /  6.8 °C 43.5 °F /  6.4 °C 30.12 in /  1019.9 hPa NNW 5.0 mph /  8 km/h 10.0 mph /  16.1 km/h 97 % 0.00 in /  0 mm
03:44 44.1 °F /  6.7 °C 43.3 °F /  6.3 °C 30.13 in /  1020.2 hPa NNW 5.0 mph /  8 km/h 9.0 mph /  14.5 km/h 97 % 0.00 in /  0 mm
03:49 44.1 °F /  6.7 °C 43.3 °F /  6.3 °C 30.13 in /  1020.2 hPa NW 4.0 mph /  6.4 km/h 10.0 mph /  16.1 km/h 97 % 0.00 in /  0 mm
03:54 43.9 °F /  6.6 °C 43.2 °F /  6.2 °C 30.14 in /  1020.5 hPa NW 5.0 mph /  8 km/h 12.0 mph /  19.3 km/h 97 % 0.00 in /  0 mm
03:59 43.9 °F /  6.6 °C 43.2 °F /  6.2 °C 30.14 in /  1020.5 hPa North 10.0 mph /  16.1 km/h 12.0 mph /  19.3 km/h 97 % 0.00 in /  0 mm
04:04 43.7 °F /  6.5 °C 43.0 °F /  6.1 °C 30.14 in /  1020.5 hPa NW 2.0 mph /  3.2 km/h 16.0 mph /  25.7 km/h 97 % 0.00 in /  0 mm
04:09 43.7 °F /  6.5 °C 43.0 °F /  6.1 °C 30.14 in /  1020.5 hPa WNW 2.0 mph /  3.2 km/h 16.0 mph /  25.7 km/h 97 % 0.00 in /  0 mm
04:14 43.7 °F /  6.5 °C 43.0 °F /  6.1 °C 30.14 in /  1020.5 hPa WNW 6.0 mph /  9.7 km/h 16.0 mph /  25.7 km/h 97 % 0.00 in /  0 mm
04:19 43.7 °F /  6.5 °C 43.0 °F /  6.1 °C 30.15 in /  1020.9 hPa NW 5.0 mph /  8 km/h 11.0 mph /  17.7 km/h 97 % 0.00 in /  0 mm
04:24 43.9 °F /  6.6 °C 43.2 °F /  6.2 °C 30.15 in /  1020.9 hPa NW 4.0 mph /  6.4 km/h 11.0 mph /  17.7 km/h 97 % 0.00 in /  0 mm
04:29 43.7 °F /  6.5 °C 43.0 °F /  6.1 °C 30.15 in /  1020.9 hPa NW 4.0 mph /  6.4 km/h 10.0 mph /  16.1 km/h 97 % 0.00 in /  0 mm
04:35 43.5 °F /  6.4 °C 42.8 °F /  6 °C 30.14 in /  1020.5 hPa Calm   11.0 mph /  17.7 km/h 97 % 0.00 in /  0 mm
04:40 43.5 °F /  6.4 °C 42.8 °F /  6 °C 30.15 in /  1020.9 hPa NW 2.0 mph /  3.2 km/h 11.0 mph /  17.7 km/h 97 % 0.00 in /  0 mm
04:45 43.5 °F /  6.4 °C 42.8 °F /  6 °C 30.15 in /  1020.9 hPa NW 5.0 mph /  8 km/h 11.0 mph /  17.7 km/h 97 % 0.00 in /  0 mm
04:50 43.5 °F /  6.4 °C 42.8 °F /  6 °C 30.15 in /  1020.9 hPa NW 8.0 mph /  12.9 km/h 9.0 mph /  14.5 km/h 97 % 0.00 in /  0 mm
04:55 43.3 °F /  6.3 °C 42.6 °F /  5.9 °C 30.16 in /  1021.2 hPa NNW 5.0 mph /  8 km/h 9.0 mph /  14.5 km/h 97 % 0.00 in /  0 mm
05:00 43.3 °F /  6.3 °C 42.6 °F /  5.9 °C 30.16 in /  1021.2 hPa NW 5.0 mph /  8 km/h 10.0 mph /  16.1 km/h 97 % 0.00 in /  0 mm
05:05 43.3 °F /  6.3 °C 42.6 °F /  5.9 °C 30.16 in /  1021.2 hPa NNW 7.0 mph /  11.3 km/h 14.0 mph /  22.5 km/h 97 % 0.00 in /  0 mm
05:10 43.3 °F /  6.3 °C 42.6 °F /  5.9 °C 30.16 in /  1021.2 hPa WNW 3.0 mph /  4.8 km/h 14.0 mph /  22.5 km/h 97 % 0.00 in /  0 mm
05:15 43.3 °F /  6.3 °C 42.6 °F /  5.9 °C 30.16 in /  1021.2 hPa NNW 6.0 mph /  9.7 km/h 14.0 mph /  22.5 km/h 97 % 0.00 in /  0 mm
05:20 43.3 °F /  6.3 °C 42.6 °F /  5.9 °C 30.16 in /  1021.2 hPa NW 3.0 mph /  4.8 km/h 8.0 mph /  12.9 km/h 97 % 0.00 in /  0 mm
05:25 43.2 °F /  6.2 °C 42.4 °F /  5.8 °C 30.16 in /  1021.2 hPa NW 4.0 mph /  6.4 km/h 8.0 mph /  12.9 km/h 97 % 0.00 in /  0 mm
05:30 43.2 °F /  6.2 °C 42.4 °F /  5.8 °C 30.16 in /  1021.2 hPa NNW 3.0 mph /  4.8 km/h 10.0 mph /  16.1 km/h 97 % 0.00 in /  0 mm
05:35 43.2 °F /  6.2 °C 42.4 °F /  5.8 °C 30.16 in /  1021.2 hPa NW 5.0 mph /  8 km/h 10.0 mph /  16.1 km/h 97 % 0.01 in /  0.25 mm
05:40 43.2 °F /  6.2 °C 42.4 °F /  5.8 °C 30.17 in /  1021.6 hPa NNE 3.0 mph /  4.8 km/h 10.0 mph /  16.1 km/h 97 % 0.01 in /  0.25 mm
05:45 43.2 °F /  6.2 °C 42.4 °F /  5.8 °C 30.17 in /  1021.6 hPa NW 5.0 mph /  8 km/h 9.0 mph /  14.5 km/h 97 % 0.01 in /  0.25 mm
05:50 43.2 °F /  6.2 °C 42.4 °F /  5.8 °C 30.17 in /  1021.6 hPa North 14.0 mph /  22.5 km/h 14.0 mph /  22.5 km/h 97 % 0.01 in /  0.25 mm
05:55 43.2 °F /  6.2 °C 42.4 °F /  5.8 °C 30.17 in /  1021.6 hPa NNW 5.0 mph /  8 km/h 14.0 mph /  22.5 km/h 97 % 0.01 in /  0.25 mm
06:00 43.2 °F /  6.2 °C 42.4 °F /  5.8 °C 30.17 in /  1021.6 hPa NW 3.0 mph /  4.8 km/h 14.0 mph /  22.5 km/h 97 % 0.01 in /  0.25 mm
06:06 43.2 °F /  6.2 °C 42.4 °F /  5.8 °C 30.18 in /  1021.9 hPa NNW 5.0 mph /  8 km/h 14.0 mph /  22.5 km/h 97 % 0.01 in /  0.25 mm
06:11 43.2 °F /  6.2 °C 42.4 °F /  5.8 °C 30.18 in /  1021.9 hPa NW 4.0 mph /  6.4 km/h 9.0 mph /  14.5 km/h 97 % 0.01 in /  0.25 mm
06:16 43.0 °F /  6.1 °C 42.3 °F /  5.7 °C 30.19 in /  1022.2 hPa NW 3.0 mph /  4.8 km/h 9.0 mph /  14.5 km/h 97 % 0.02 in /  0.51 mm
06:21 43.0 °F /  6.1 °C 42.3 °F /  5.7 °C 30.19 in /  1022.2 hPa NW 3.0 mph /  4.8 km/h 9.0 mph /  14.5 km/h 97 % 0.03 in /  0.76 mm
06:26 42.6 °F /  5.9 °C 41.9 °F /  5.5 °C 30.20 in /  1022.6 hPa NW 5.0 mph /  8 km/h 12.0 mph /  19.3 km/h 97 % 0.07 in /  1.78 mm
06:31 42.4 °F /  5.8 °C 41.7 °F /  5.4 °C 30.19 in /  1022.2 hPa NNW 4.0 mph /  6.4 km/h 14.0 mph /  22.5 km/h 97 % 0.07 in /  1.78 mm
06:36 42.4 °F /  5.8 °C 41.7 °F /  5.4 °C 30.19 in /  1022.2 hPa NW 4.0 mph /  6.4 km/h 14.0 mph /  22.5 km/h 97 % 0.06 in /  1.52 mm
06:41 42.3 °F /  5.7 °C 41.5 °F /  5.3 °C 30.20 in /  1022.6 hPa WNW 3.0 mph /  4.8 km/h 14.0 mph /  22.5 km/h 97 % 0.06 in /  1.52 mm
06:46 42.3 °F /  5.7 °C 41.5 °F /  5.3 °C 30.20 in /  1022.6 hPa North 10.0 mph /  16.1 km/h 11.0 mph /  17.7 km/h 97 % 0.06 in /  1.52 mm
06:51 42.3 °F /  5.7 °C 41.5 °F /  5.3 °C 30.20 in /  1022.6 hPa WNW 4.0 mph /  6.4 km/h 11.0 mph /  17.7 km/h 97 % 0.06 in /  1.52 mm
06:56 42.3 °F /  5.7 °C 41.5 °F /  5.3 °C 30.20 in /  1022.6 hPa North 7.0 mph /  11.3 km/h 11.0 mph /  17.7 km/h 97 % 0.06 in /  1.52 mm
07:01 42.3 °F /  5.7 °C 41.5 °F /  5.3 °C 30.21 in /  1022.9 hPa NNW 6.0 mph /  9.7 km/h 11.0 mph /  17.7 km/h 97 % 0.06 in /  1.52 mm
07:06 42.3 °F /  5.7 °C 41.7 °F /  5.4 °C 30.22 in /  1023.2 hPa West 2.0 mph /  3.2 km/h 11.0 mph /  17.7 km/h 98 % 0.06 in /  1.52 mm
07:11 42.3 °F /  5.7 °C 41.7 °F /  5.4 °C 30.23 in /  1023.6 hPa NNW 5.0 mph /  8 km/h 12.0 mph /  19.3 km/h 98 % 0.06 in /  1.52 mm
07:16 42.4 °F /  5.8 °C 41.9 °F /  5.5 °C 30.23 in /  1023.6 hPa WNW 7.0 mph /  11.3 km/h 12.0 mph /  19.3 km/h 98 % 0.05 in /  1.27 mm
07:21 42.3 °F /  5.7 °C 41.5 °F /  5.3 °C 30.23 in /  1023.6 hPa NW 8.0 mph /  12.9 km/h 13.0 mph /  20.9 km/h 97 % 0.04 in /  1.02 mm
07:27 42.3 °F /  5.7 °C 41.5 °F /  5.3 °C 30.22 in /  1023.2 hPa NNW 3.0 mph /  4.8 km/h 13.0 mph /  20.9 km/h 97 % 0.00 in /  0 mm
07:29 42.3 °F /  5.7 °C 41.5 °F /  5.3 °C 30.22 in /  1023.2 hPa NNW 6.0 mph /  9.7 km/h 13.0 mph /  20.9 km/h 97 % 0.00 in /  0 mm
07:37 42.3 °F /  5.7 °C 41.5 °F /  5.3 °C 30.18 in /  1021.9 hPa NE 4.0 mph /  6.4 km/h 18.0 mph /  29 km/h 97 % 0.00 in /  0 mm
07:44 42.4 °F /  5.8 °C 41.7 °F /  5.4 °C 30.19 in /  1022.2 hPa NNE 1.0 mph /  1.6 km/h 18.0 mph /  29 km/h 97 % 0.00 in /  0 mm
07:49 42.6 °F /  5.9 °C 41.9 °F /  5.5 °C 30.20 in /  1022.6 hPa NW 3.0 mph /  4.8 km/h 14.0 mph /  22.5 km/h 97 % 0.00 in /  0 mm
07:54 42.6 °F /  5.9 °C 41.9 °F /  5.5 °C 30.25 in /  1024.3 hPa NW 7.0 mph /  11.3 km/h 8.0 mph /  12.9 km/h 97 % 0.00 in /  0 mm
07:59 42.8 °F /  6 °C 42.1 °F /  5.6 °C 30.25 in /  1024.3 hPa NW 5.0 mph /  8 km/h 10.0 mph /  16.1 km/h 97 % 0.00 in /  0 mm
08:04 42.6 °F /  5.9 °C 41.9 °F /  5.5 °C 30.25 in /  1024.3 hPa NW 6.0 mph /  9.7 km/h 12.0 mph /  19.3 km/h 97 % 0.01 in /  0.25 mm
08:09 42.6 °F /  5.9 °C 41.9 °F /  5.5 °C 30.24 in /  1023.9 hPa NNW 8.0 mph /  12.9 km/h 12.0 mph /  19.3 km/h 97 % 0.02 in /  0.51 mm
08:14 42.4 °F /  5.8 °C 41.7 °F /  5.4 °C 30.25 in /  1024.3 hPa NW 3.0 mph /  4.8 km/h 12.0 mph /  19.3 km/h 97 % 0.04 in /  1.02 mm
08:19 42.4 °F /  5.8 °C 41.7 °F /  5.4 °C 30.25 in /  1024.3 hPa NW 5.0 mph /  8 km/h 12.0 mph /  19.3 km/h 97 % 0.07 in /  1.78 mm
08:24 42.3 °F /  5.7 °C 41.5 °F /  5.3 °C 30.23 in /  1023.6 hPa NW 6.0 mph /  9.7 km/h 12.0 mph /  19.3 km/h 97 % 0.15 in /  3.81 mm
08:29 42.3 °F /  5.7 °C 41.5 °F /  5.3 °C 30.24 in /  1023.9 hPa North 3.0 mph /  4.8 km/h 11.0 mph /  17.7 km/h 97 % 0.18 in /  4.57 mm
08:34 42.3 °F /  5.7 °C 41.7 °F /  5.4 °C 30.24 in /  1023.9 hPa North 1.0 mph /  1.6 km/h 11.0 mph /  17.7 km/h 98 % 0.20 in /  5.08 mm
08:37 42.1 °F /  5.6 °C 41.5 °F /  5.3 °C 30.22 in /  1023.2 hPa WNW 2.0 mph /  3.2 km/h 11.0 mph /  17.7 km/h 98 % 0.21 in /  5.33 mm
08:42 42.1 °F /  5.6 °C 41.5 °F /  5.3 °C 30.21 in /  1022.9 hPa NW 3.0 mph /  4.8 km/h 7.0 mph /  11.3 km/h 98 % 0.23 in /  5.84 mm
08:52 41.9 °F /  5.5 °C 41.4 °F /  5.2 °C 30.23 in /  1023.6 hPa WNW 1.0 mph /  1.6 km/h 9.0 mph /  14.5 km/h 98 % 0.23 in /  5.84 mm
08:57 42.1 °F /  5.6 °C 41.5 °F /  5.3 °C 30.23 in /  1023.6 hPa NNW 3.0 mph /  4.8 km/h 9.0 mph /  14.5 km/h 98 % 0.23 in /  5.84 mm
09:02 41.9 °F /  5.5 °C 41.4 °F /  5.2 °C 30.24 in /  1023.9 hPa NNE 11.0 mph /  17.7 km/h 11.0 mph /  17.7 km/h 98 % 0.22 in /  5.59 mm
09:07 41.9 °F /  5.5 °C 41.4 °F /  5.2 °C 30.25 in /  1024.3 hPa NNW 7.0 mph /  11.3 km/h 12.0 mph /  19.3 km/h 98 % 0.21 in /  5.33 mm
09:12 41.9 °F /  5.5 °C 41.4 °F /  5.2 °C 30.25 in /  1024.3 hPa NNW 3.0 mph /  4.8 km/h 12.0 mph /  19.3 km/h 98 % 0.19 in /  4.83 mm
09:17 42.1 °F /  5.6 °C 41.5 °F /  5.3 °C 30.26 in /  1024.6 hPa NW 2.0 mph /  3.2 km/h 12.0 mph /  19.3 km/h 98 % 0.16 in /  4.06 mm
09:22 42.1 °F /  5.6 °C 41.5 °F /  5.3 °C 30.27 in /  1024.9 hPa WNW 3.0 mph /  4.8 km/h 10.0 mph /  16.1 km/h 98 % 0.08 in /  2.03 mm
09:27 42.1 °F /  5.6 °C 41.5 °F /  5.3 °C 30.27 in /  1024.9 hPa NNW 3.0 mph /  4.8 km/h 9.0 mph /  14.5 km/h 98 % 0.04 in /  1.02 mm
09:32 42.3 °F /  5.7 °C 41.7 °F /  5.4 °C 30.27 in /  1024.9 hPa NW 6.0 mph /  9.7 km/h 9.0 mph /  14.5 km/h 98 % 0.04 in /  1.02 mm
09:37 42.3 °F /  5.7 °C 41.7 °F /  5.4 °C 30.27 in /  1024.9 hPa NNW 7.0 mph /  11.3 km/h 10.0 mph /  16.1 km/h 98 % 0.03 in /  0.76 mm
09:42 42.3 °F /  5.7 °C 41.7 °F /  5.4 °C 30.27 in /  1024.9 hPa NNW 3.0 mph /  4.8 km/h 10.0 mph /  16.1 km/h 98 % 0.01 in /  0.25 mm
09:47 42.4 °F /  5.8 °C 41.9 °F /  5.5 °C 30.26 in /  1024.6 hPa NNW 1.0 mph /  1.6 km/h 10.0 mph /  16.1 km/h 98 % 0.01 in /  0.25 mm
09:52 42.6 °F /  5.9 °C 42.1 °F /  5.6 °C 30.26 in /  1024.6 hPa NNE 4.0 mph /  6.4 km/h 8.0 mph /  12.9 km/h 98 % 0.01 in /  0.25 mm
09:57 42.6 °F /  5.9 °C 42.1 °F /  5.6 °C 30.26 in /  1024.6 hPa NW 7.0 mph /  11.3 km/h 10.0 mph /  16.1 km/h 98 % 0.01 in /  0.25 mm
10:02 42.8 °F /  6 °C 42.3 °F /  5.7 °C 30.27 in /  1024.9 hPa NNW 2.0 mph /  3.2 km/h 10.0 mph /  16.1 km/h 98 % 0.01 in /  0.25 mm
10:07 43.0 °F /  6.1 °C 42.4 °F /  5.8 °C 30.28 in /  1025.3 hPa North 1.0 mph /  1.6 km/h 10.0 mph /  16.1 km/h 98 % 0.01 in /  0.25 mm
10:12 43.5 °F /  6.4 °C 43.3 °F /  6.3 °C 30.29 in /  1025.6 hPa NNW 4.0 mph /  6.4 km/h 9.0 mph /  14.5 km/h 99 % 0.01 in /  0.25 mm
10:17 43.3 °F /  6.3 °C 42.8 °F /  6 °C 30.29 in /  1025.6 hPa NW 3.0 mph /  4.8 km/h 10.0 mph /  16.1 km/h 98 % 0.01 in /  0.25 mm
10:22 43.5 °F /  6.4 °C 43.0 °F /  6.1 °C 30.28 in /  1025.3 hPa NW 6.0 mph /  9.7 km/h 10.0 mph /  16.1 km/h 98 % 0.01 in /  0.25 mm
10:27 43.3 °F /  6.3 °C 42.8 °F /  6 °C 30.26 in /  1024.6 hPa NNW 9.0 mph /  14.5 km/h 10.0 mph /  16.1 km/h 98 % 0.01 in /  0.25 mm
10:32 43.3 °F /  6.3 °C 42.8 °F /  6 °C 30.27 in /  1024.9 hPa NNW 3.0 mph /  4.8 km/h 12.0 mph /  19.3 km/h 98 % 0.00 in /  0 mm
10:37 43.3 °F /  6.3 °C 42.8 °F /  6 °C 30.26 in /  1024.6 hPa NNW 5.0 mph /  8 km/h 12.0 mph /  19.3 km/h 98 % 0.00 in /  0 mm
10:42 43.5 °F /  6.4 °C 43.0 °F /  6.1 °C 30.27 in /  1024.9 hPa NNW 3.0 mph /  4.8 km/h 12.0 mph /  19.3 km/h 98 % 0.00 in /  0 mm
10:47 43.7 °F /  6.5 °C 43.2 °F /  6.2 °C 30.28 in /  1025.3 hPa NW 5.0 mph /  8 km/h 13.0 mph /  20.9 km/h 98 % 0.00 in /  0 mm
10:52 43.5 °F /  6.4 °C 42.8 °F /  6 °C 30.29 in /  1025.6 hPa NW 3.0 mph /  4.8 km/h 13.0 mph /  20.9 km/h 97 % 0.00 in /  0 mm
10:57 43.7 °F /  6.5 °C 43.0 °F /  6.1 °C 30.30 in /  1026 hPa NNW 5.0 mph /  8 km/h 13.0 mph /  20.9 km/h 97 % 0.00 in /  0 mm
11:03 43.5 °F /  6.4 °C 42.8 °F /  6 °C 30.30 in /  1026 hPa NW 4.0 mph /  6.4 km/h 12.0 mph /  19.3 km/h 97 % 0.00 in /  0 mm
11:08 43.7 °F /  6.5 °C 43.0 °F /  6.1 °C 30.30 in /  1026 hPa NW 7.0 mph /  11.3 km/h 8.0 mph /  12.9 km/h 97 % 0.00 in /  0 mm
11:13 43.9 °F /  6.6 °C 43.2 °F /  6.2 °C 30.30 in /  1026 hPa NNW 6.0 mph /  9.7 km/h 12.0 mph /  19.3 km/h 97 % 0.00 in /  0 mm
11:18 43.9 °F /  6.6 °C 43.2 °F /  6.2 °C 30.30 in /  1026 hPa NW 5.0 mph /  8 km/h 12.0 mph /  19.3 km/h 97 % 0.00 in /  0 mm
11:23 44.1 °F /  6.7 °C 43.3 °F /  6.3 °C 30.28 in /  1025.3 hPa North 7.0 mph /  11.3 km/h 12.0 mph /  19.3 km/h 97 % 0.00 in /  0 mm
11:28 44.1 °F /  6.7 °C 43.0 °F /  6.1 °C 30.27 in /  1024.9 hPa NW 4.0 mph /  6.4 km/h 10.0 mph /  16.1 km/h 96 % 0.02 in /  0.51 mm
11:33 44.1 °F /  6.7 °C 43.3 °F /  6.3 °C 30.28 in /  1025.3 hPa North 8.0 mph /  12.9 km/h 10.0 mph /  16.1 km/h 97 % 0.04 in /  1.02 mm
11:38 44.2 °F /  6.8 °C 43.5 °F /  6.4 °C 30.27 in /  1024.9 hPa North 2.0 mph /  3.2 km/h 13.0 mph /  20.9 km/h 97 % 0.04 in /  1.02 mm
11:43 44.2 °F /  6.8 °C 43.2 °F /  6.2 °C 30.27 in /  1024.9 hPa WNW 8.0 mph /  12.9 km/h 13.0 mph /  20.9 km/h 96 % 0.04 in /  1.02 mm
11:48 44.1 °F /  6.7 °C 43.0 °F /  6.1 °C 30.28 in /  1025.3 hPa NE 2.0 mph /  3.2 km/h 13.0 mph /  20.9 km/h 96 % 0.04 in /  1.02 mm
11:53 44.1 °F /  6.7 °C 43.3 °F /  6.3 °C 30.27 in /  1024.9 hPa NNE 6.0 mph /  9.7 km/h 13.0 mph /  20.9 km/h 97 % 0.04 in /  1.02 mm
11:58 44.1 °F /  6.7 °C 43.0 °F /  6.1 °C 30.28 in /  1025.3 hPa NNW 5.0 mph /  8 km/h 13.0 mph /  20.9 km/h 96 % 0.04 in /  1.02 mm
12:03 44.1 °F /  6.7 °C 43.0 °F /  6.1 °C 30.29 in /  1025.6 hPa NNW 4.0 mph /  6.4 km/h 9.0 mph /  14.5 km/h 96 % 0.04 in /  1.02 mm
12:08 43.9 °F /  6.6 °C 42.8 °F /  6 °C 30.29 in /  1025.6 hPa NNW 4.0 mph /  6.4 km/h 9.0 mph /  14.5 km/h 96 % 0.04 in /  1.02 mm
12:13 43.9 °F /  6.6 °C 42.8 °F /  6 °C 30.29 in /  1025.6 hPa NNW 5.0 mph /  8 km/h 12.0 mph /  19.3 km/h 96 % 0.04 in /  1.02 mm
12:18 43.9 °F /  6.6 °C 42.6 °F /  5.9 °C 30.30 in /  1026 hPa WNW 4.0 mph /  6.4 km/h 14.0 mph /  22.5 km/h 95 % 0.04 in /  1.02 mm
12:23 43.5 °F /  6.4 °C 42.3 °F /  5.7 °C 30.30 in /  1026 hPa NW 9.0 mph /  14.5 km/h 14.0 mph /  22.5 km/h 95 % 0.04 in /  1.02 mm
12:28 43.5 °F /  6.4 °C 42.3 °F /  5.7 °C 30.30 in /  1026 hPa NW 5.0 mph /  8 km/h 14.0 mph /  22.5 km/h 95 % 0.01 in /  0.25 mm
12:33 43.5 °F /  6.4 °C 42.3 °F /  5.7 °C 30.29 in /  1025.6 hPa WNW 5.0 mph /  8 km/h 13.0 mph /  20.9 km/h 95 % 0.00 in /  0 mm
12:38 43.5 °F /  6.4 °C 42.3 °F /  5.7 °C 30.29 in /  1025.6 hPa North 4.0 mph /  6.4 km/h 13.0 mph /  20.9 km/h 95 % 0.00 in /  0 mm
12:43 43.5 °F /  6.4 °C 42.3 °F /  5.7 °C 30.29 in /  1025.6 hPa NW 7.0 mph /  11.3 km/h 11.0 mph /  17.7 km/h 95 % 0.00 in /  0 mm
12:48 43.3 °F /  6.3 °C 42.1 °F /  5.6 °C 30.29 in /  1025.6 hPa NNW 7.0 mph /  11.3 km/h 10.0 mph /  16.1 km/h 95 % 0.00 in /  0 mm
12:53 43.2 °F /  6.2 °C 41.9 °F /  5.5 °C 30.30 in /  1026 hPa NNW 6.0 mph /  9.7 km/h 12.0 mph /  19.3 km/h 95 % 0.00 in /  0 mm
12:58 43.0 °F /  6.1 °C 41.7 °F /  5.4 °C 30.28 in /  1025.3 hPa NNE 5.0 mph /  8 km/h 12.0 mph /  19.3 km/h 95 % 0.00 in /  0 mm
13:03 43.0 °F /  6.1 °C 41.7 °F /  5.4 °C 30.29 in /  1025.6 hPa NNW 5.0 mph /  8 km/h 12.0 mph /  19.3 km/h 95 % 0.00 in /  0 mm
13:08 42.8 °F /  6 °C 41.5 °F /  5.3 °C 30.28 in /  1025.3 hPa NNE 7.0 mph /  11.3 km/h 11.0 mph /  17.7 km/h 95 % 0.00 in /  0 mm
13:13 42.4 °F /  5.8 °C 41.2 °F /  5.1 °C 30.30 in /  1026 hPa NNW 3.0 mph /  4.8 km/h 12.0 mph /  19.3 km/h 95 % 0.00 in /  0 mm
13:18 42.4 °F /  5.8 °C 40.8 °F /  4.9 °C 30.28 in /  1025.3 hPa North 6.0 mph /  9.7 km/h 12.0 mph /  19.3 km/h 94 % 0.01 in /  0.25 mm
13:23 42.1 °F /  5.6 °C 40.8 °F /  4.9 °C 30.29 in /  1025.6 hPa NW 4.0 mph /  6.4 km/h 14.0 mph /  22.5 km/h 95 % 0.02 in /  0.51 mm
13:28 41.9 °F /  5.5 °C 40.8 °F /  4.9 °C 30.29 in /  1025.6 hPa NW 6.0 mph /  9.7 km/h 14.0 mph /  22.5 km/h 96 % 0.04 in /  1.02 mm
13:31 41.7 °F /  5.4 °C 40.6 °F /  4.8 °C 30.30 in /  1026 hPa NW 6.0 mph /  9.7 km/h 14.0 mph /  22.5 km/h 96 % 0.13 in /  3.3 mm
13:36 41.5 °F /  5.3 °C 40.5 °F /  4.7 °C 30.27 in /  1024.9 hPa NW 5.0 mph /  8 km/h 12.0 mph /  19.3 km/h 96 % 0.18 in /  4.57 mm
13:41 41.7 °F /  5.4 °C 41.0 °F /  5 °C 30.25 in /  1024.3 hPa NNE 3.0 mph /  4.8 km/h 12.0 mph /  19.3 km/h 97 % 0.18 in /  4.57 mm
13:47 41.7 °F /  5.4 °C 41.0 °F /  5 °C 30.25 in /  1024.3 hPa West 3.0 mph /  4.8 km/h 12.0 mph /  19.3 km/h 97 % 0.18 in /  4.57 mm
13:52 41.7 °F /  5.4 °C 41.0 °F /  5 °C 30.26 in /  1024.6 hPa NW 3.0 mph /  4.8 km/h 10.0 mph /  16.1 km/h 97 % 0.18 in /  4.57 mm
14:00 41.7 °F /  5.4 °C 41.0 °F /  5 °C 30.26 in /  1024.6 hPa NNW 3.0 mph /  4.8 km/h 10.0 mph /  16.1 km/h 97 % 0.18 in /  4.57 mm
14:05 41.5 °F /  5.3 °C 40.8 °F /  4.9 °C 30.27 in /  1024.9 hPa NNW 2.0 mph /  3.2 km/h 9.0 mph /  14.5 km/h 97 % 0.18 in /  4.57 mm
14:10 41.5 °F /  5.3 °C 40.8 °F /  4.9 °C 30.30 in /  1026 hPa Calm   9.0 mph /  14.5 km/h 97 % 0.19 in /  4.83 mm
14:14 41.5 °F /  5.3 °C 41.0 °F /  5 °C 30.30 in /  1026 hPa Calm   9.0 mph /  14.5 km/h 98 % 0.19 in /  4.83 mm
14:17 41.5 °F /  5.3 °C 41.0 °F /  5 °C 30.31 in /  1026.3 hPa NW 2.0 mph /  3.2 km/h 9.0 mph /  14.5 km/h 98 % 0.18 in /  4.57 mm
14:27 41.7 °F /  5.4 °C 41.2 °F /  5.1 °C 30.27 in /  1024.9 hPa NW 4.0 mph /  6.4 km/h 7.0 mph /  11.3 km/h 98 % 0.15 in /  3.81 mm
14:32 41.7 °F /  5.4 °C 41.2 °F /  5.1 °C 30.27 in /  1024.9 hPa NNW 1.0 mph /  1.6 km/h 8.0 mph /  12.9 km/h 98 % 0.06 in /  1.52 mm
14:37 41.9 °F /  5.5 °C 41.4 °F /  5.2 °C 30.28 in /  1025.3 hPa North 4.0 mph /  6.4 km/h 10.0 mph /  16.1 km/h 98 % 0.01 in /  0.25 mm
14:42 42.1 °F /  5.6 °C 41.5 °F /  5.3 °C 30.26 in /  1024.6 hPa NNW 7.0 mph /  11.3 km/h 10.0 mph /  16.1 km/h 98 % 0.01 in /  0.25 mm
14:47 42.3 °F /  5.7 °C 41.7 °F /  5.4 °C 30.26 in /  1024.6 hPa NW 4.0 mph /  6.4 km/h 10.0 mph /  16.1 km/h 98 % 0.01 in /  0.25 mm
14:52 42.4 °F /  5.8 °C 41.9 °F /  5.5 °C 30.27 in /  1024.9 hPa NNW 6.0 mph /  9.7 km/h 12.0 mph /  19.3 km/h 98 % 0.01 in /  0.25 mm
14:57 42.6 °F /  5.9 °C 42.1 °F /  5.6 °C 30.27 in /  1024.9 hPa WSW 3.0 mph /  4.8 km/h 12.0 mph /  19.3 km/h 98 % 0.01 in /  0.25 mm
15:02 42.6 °F /  5.9 °C 42.1 °F /  5.6 °C 30.27 in /  1024.9 hPa NW 2.0 mph /  3.2 km/h 12.0 mph /  19.3 km/h 98 % 0.01 in /  0.25 mm
15:07 42.6 °F /  5.9 °C 41.9 °F /  5.5 °C 30.27 in /  1024.9 hPa NW 5.0 mph /  8 km/h 10.0 mph /  16.1 km/h 97 % 0.01 in /  0.25 mm
15:12 42.4 °F /  5.8 °C 41.7 °F /  5.4 °C 30.28 in /  1025.3 hPa North 7.0 mph /  11.3 km/h 9.0 mph /  14.5 km/h 97 % 0.00 in /  0 mm
15:17 42.4 °F /  5.8 °C 41.7 °F /  5.4 °C 30.28 in /  1025.3 hPa NNW 3.0 mph /  4.8 km/h 9.0 mph /  14.5 km/h 97 % 0.00 in /  0 mm
15:22 42.4 °F /  5.8 °C 41.7 °F /  5.4 °C 30.29 in /  1025.6 hPa NW 2.0 mph /  3.2 km/h 9.0 mph /  14.5 km/h 97 % 0.00 in /  0 mm
15:27 42.4 °F /  5.8 °C 41.7 °F /  5.4 °C 30.29 in /  1025.6 hPa WNW 8.0 mph /  12.9 km/h 9.0 mph /  14.5 km/h 97 % 0.00 in /  0 mm
15:32 42.4 °F /  5.8 °C 41.4 °F /  5.2 °C 30.28 in /  1025.3 hPa NW 5.0 mph /  8 km/h 10.0 mph /  16.1 km/h 96 % 0.00 in /  0 mm
15:37 42.4 °F /  5.8 °C 41.4 °F /  5.2 °C 30.30 in /  1026 hPa NNW 4.0 mph /  6.4 km/h 12.0 mph /  19.3 km/h 96 % 0.00 in /  0 mm
15:42 42.4 °F /  5.8 °C 41.4 °F /  5.2 °C 30.30 in /  1026 hPa NNW 6.0 mph /  9.7 km/h 12.0 mph /  19.3 km/h 96 % 0.00 in /  0 mm
15:47 42.6 °F /  5.9 °C 41.5 °F /  5.3 °C 30.29 in /  1025.6 hPa NW 2.0 mph /  3.2 km/h 12.0 mph /  19.3 km/h 96 % 0.00 in /  0 mm
15:52 42.6 °F /  5.9 °C 41.5 °F /  5.3 °C 30.30 in /  1026 hPa WNW 7.0 mph /  11.3 km/h 12.0 mph /  19.3 km/h 96 % 0.00 in /  0 mm
15:57 42.4 °F /  5.8 °C 41.4 °F /  5.2 °C 30.30 in /  1026 hPa NNW 2.0 mph /  3.2 km/h 12.0 mph /  19.3 km/h 96 % 0.00 in /  0 mm
16:02 42.6 °F /  5.9 °C 41.5 °F /  5.3 °C 30.30 in /  1026 hPa North 5.0 mph /  8 km/h 12.0 mph /  19.3 km/h 96 % 0.00 in /  0 mm
16:07 42.4 °F /  5.8 °C 41.2 °F /  5.1 °C 30.30 in /  1026 hPa NNW 7.0 mph /  11.3 km/h 12.0 mph /  19.3 km/h 95 % 0.00 in /  0 mm
16:12 42.3 °F /  5.7 °C 41.0 °F /  5 °C 30.30 in /  1026 hPa NNE 4.0 mph /  6.4 km/h 11.0 mph /  17.7 km/h 95 % 0.00 in /  0 mm
16:17 42.3 °F /  5.7 °C 41.0 °F /  5 °C 30.31 in /  1026.3 hPa NNW 7.0 mph /  11.3 km/h 11.0 mph /  17.7 km/h 95 % 0.00 in /  0 mm
16:22 42.1 °F /  5.6 °C 40.8 °F /  4.9 °C 30.31 in /  1026.3 hPa NW 2.0 mph /  3.2 km/h 11.0 mph /  17.7 km/h 95 % 0.00 in /  0 mm
16:27 42.1 °F /  5.6 °C 40.8 °F /  4.9 °C 30.32 in /  1026.6 hPa NNW 3.0 mph /  4.8 km/h 11.0 mph /  17.7 km/h 95 % 0.00 in /  0 mm
16:32 42.1 °F /  5.6 °C 40.8 °F /  4.9 °C 30.32 in /  1026.6 hPa NW 1.0 mph /  1.6 km/h 11.0 mph /  17.7 km/h 95 % 0.00 in /  0 mm
16:37 42.1 °F /  5.6 °C 40.8 °F /  4.9 °C 30.32 in /  1026.6 hPa North 6.0 mph /  9.7 km/h 11.0 mph /  17.7 km/h 95 % 0.00 in /  0 mm
16:42 41.9 °F /  5.5 °C 40.6 °F /  4.8 °C 30.32 in /  1026.6 hPa NE 4.0 mph /  6.4 km/h 10.0 mph /  16.1 km/h 95 % 0.00 in /  0 mm
16:47 41.9 °F /  5.5 °C 40.6 °F /  4.8 °C 30.33 in /  1027 hPa NW 6.0 mph /  9.7 km/h 11.0 mph /  17.7 km/h 95 % 0.00 in /  0 mm
16:52 41.9 °F /  5.5 °C 40.6 °F /  4.8 °C 30.33 in /  1027 hPa NE 4.0 mph /  6.4 km/h 11.0 mph /  17.7 km/h 95 % 0.00 in /  0 mm
16:57 41.7 °F /  5.4 °C 40.5 °F /  4.7 °C 30.33 in /  1027 hPa NNW 4.0 mph /  6.4 km/h 11.0 mph /  17.7 km/h 95 % 0.00 in /  0 mm
17:02 41.9 °F /  5.5 °C 40.3 °F /  4.6 °C 30.33 in /  1027 hPa NW 3.0 mph /  4.8 km/h 11.0 mph /  17.7 km/h 94 % 0.00 in /  0 mm
17:07 41.9 °F /  5.5 °C 40.6 °F /  4.8 °C 30.33 in /  1027 hPa North 4.0 mph /  6.4 km/h 12.0 mph /  19.3 km/h 95 % 0.00 in /  0 mm
17:12 41.7 °F /  5.4 °C 40.1 °F /  4.5 °C 30.33 in /  1027 hPa North 7.0 mph /  11.3 km/h 12.0 mph /  19.3 km/h 94 % 0.00 in /  0 mm
17:17 41.7 °F /  5.4 °C 40.1 °F /  4.5 °C 30.33 in /  1027 hPa NNE 2.0 mph /  3.2 km/h 12.0 mph /  19.3 km/h 94 % 0.00 in /  0 mm
17:22 41.7 °F /  5.4 °C 40.1 °F /  4.5 °C 30.33 in /  1027 hPa North 3.0 mph /  4.8 km/h 10.0 mph /  16.1 km/h 94 % 0.00 in /  0 mm
17:27 41.9 °F /  5.5 °C 40.3 °F /  4.6 °C 30.33 in /  1027 hPa North 7.0 mph /  11.3 km/h 10.0 mph /  16.1 km/h 94 % 0.00 in /  0 mm
17:32 41.7 °F /  5.4 °C 40.1 °F /  4.5 °C 30.33 in /  1027 hPa NNW 4.0 mph /  6.4 km/h 8.0 mph /  12.9 km/h 94 % 0.00 in /  0 mm
17:37 41.7 °F /  5.4 °C 40.1 °F /  4.5 °C 30.33 in /  1027 hPa NNW 3.0 mph /  4.8 km/h 11.0 mph /  17.7 km/h 94 % 0.00 in /  0 mm
17:42 41.9 °F /  5.5 °C 40.3 °F /  4.6 °C 30.33 in /  1027 hPa NNW 4.0 mph /  6.4 km/h 11.0 mph /  17.7 km/h 94 % 0.00 in /  0 mm
17:47 41.9 °F /  5.5 °C 40.3 °F /  4.6 °C 30.34 in /  1027.3 hPa NNW 3.0 mph /  4.8 km/h 11.0 mph /  17.7 km/h 94 % 0.00 in /  0 mm
17:52 42.1 °F /  5.6 °C 40.5 °F /  4.7 °C 30.33 in /  1027 hPa Calm   9.0 mph /  14.5 km/h 94 % 0.00 in /  0 mm
17:57 42.3 °F /  5.7 °C 40.6 °F /  4.8 °C 30.33 in /  1027 hPa NNW 3.0 mph /  4.8 km/h 9.0 mph /  14.5 km/h 94 % 0.00 in /  0 mm
18:02 42.3 °F /  5.7 °C 40.6 °F /  4.8 °C 30.34 in /  1027.3 hPa NW 2.0 mph /  3.2 km/h 9.0 mph /  14.5 km/h 94 % 0.00 in /  0 mm
18:08 42.3 °F /  5.7 °C 40.6 °F /  4.8 °C 30.34 in /  1027.3 hPa ENE 3.0 mph /  4.8 km/h 9.0 mph /  14.5 km/h 94 % 0.00 in /  0 mm
18:13 42.1 °F /  5.6 °C 40.5 °F /  4.7 °C 30.34 in /  1027.3 hPa NNW 4.0 mph /  6.4 km/h 9.0 mph /  14.5 km/h 94 % 0.00 in /  0 mm
18:18 42.3 °F /  5.7 °C 40.6 °F /  4.8 °C 30.34 in /  1027.3 hPa WNW 2.0 mph /  3.2 km/h 7.0 mph /  11.3 km/h 94 % 0.00 in /  0 mm
18:23 42.3 °F /  5.7 °C 40.6 °F /  4.8 °C 30.35 in /  1027.7 hPa NW 2.0 mph /  3.2 km/h 7.0 mph /  11.3 km/h 94 % 0.00 in /  0 mm
18:28 42.3 °F /  5.7 °C 40.6 °F /  4.8 °C 30.35 in /  1027.7 hPa NW 1.0 mph /  1.6 km/h 8.0 mph /  12.9 km/h 94 % 0.00 in /  0 mm
18:33 42.3 °F /  5.7 °C 40.6 °F /  4.8 °C 30.35 in /  1027.7 hPa WNW 1.0 mph /  1.6 km/h 8.0 mph /  12.9 km/h 94 % 0.00 in /  0 mm
18:38 42.3 °F /  5.7 °C 40.6 °F /  4.8 °C 30.35 in /  1027.7 hPa Calm   9.0 mph /  14.5 km/h 94 % 0.00 in /  0 mm
18:43 42.3 °F /  5.7 °C 40.6 °F /  4.8 °C 30.35 in /  1027.7 hPa NNW 4.0 mph /  6.4 km/h 9.0 mph /  14.5 km/h 94 % 0.00 in /  0 mm
18:48 42.3 °F /  5.7 °C 40.6 °F /  4.8 °C 30.36 in /  1028 hPa NNW 2.0 mph /  3.2 km/h 9.0 mph /  14.5 km/h 94 % 0.00 in /  0 mm
18:53 42.1 °F /  5.6 °C 40.5 °F /  4.7 °C 30.36 in /  1028 hPa NNW 4.0 mph /  6.4 km/h 9.0 mph /  14.5 km/h 94 % 0.00 in /  0 mm
18:58 42.1 °F /  5.6 °C 40.5 °F /  4.7 °C 30.36 in /  1028 hPa NW 6.0 mph /  9.7 km/h 10.0 mph /  16.1 km/h 94 % 0.00 in /  0 mm
19:03 41.9 °F /  5.5 °C 40.3 °F /  4.6 °C 30.36 in /  1028 hPa North 1.0 mph /  1.6 km/h 11.0 mph /  17.7 km/h 94 % 0.00 in /  0 mm
19:08 41.9 °F /  5.5 °C 40.3 °F /  4.6 °C 30.37 in /  1028.3 hPa North 3.0 mph /  4.8 km/h 11.0 mph /  17.7 km/h 94 % 0.00 in /  0 mm
19:13 41.9 °F /  5.5 °C 40.3 °F /  4.6 °C 30.37 in /  1028.3 hPa NW 10.0 mph /  16.1 km/h 11.0 mph /  17.7 km/h 94 % 0.00 in /  0 mm
19:18 41.9 °F /  5.5 °C 40.3 °F /  4.6 °C 30.37 in /  1028.3 hPa NE 5.0 mph /  8 km/h 12.0 mph /  19.3 km/h 94 % 0.00 in /  0 mm
19:23 41.9 °F /  5.5 °C 40.3 °F /  4.6 °C 30.37 in /  1028.3 hPa NW 4.0 mph /  6.4 km/h 12.0 mph /  19.3 km/h 94 % 0.00 in /  0 mm
19:28 41.7 °F /  5.4 °C 40.1 °F /  4.5 °C 30.37 in /  1028.3 hPa NNW 4.0 mph /  6.4 km/h 14.0 mph /  22.5 km/h 94 % 0.00 in /  0 mm
19:33 41.9 °F /  5.5 °C 40.3 °F /  4.6 °C 30.38 in /  1028.7 hPa NE 8.0 mph /  12.9 km/h 14.0 mph /  22.5 km/h 94 % 0.00 in /  0 mm
19:38 41.9 °F /  5.5 °C 40.3 °F /  4.6 °C 30.38 in /  1028.7 hPa NW 6.0 mph /  9.7 km/h 14.0 mph /  22.5 km/h 94 % 0.00 in /  0 mm
19:43 41.9 °F /  5.5 °C 40.3 °F /  4.6 °C 30.38 in /  1028.7 hPa West 1.0 mph /  1.6 km/h 12.0 mph /  19.3 km/h 94 % 0.00 in /  0 mm
19:48 41.9 °F /  5.5 °C 40.3 °F /  4.6 °C 30.38 in /  1028.7 hPa NNW 5.0 mph /  8 km/h 12.0 mph /  19.3 km/h 94 % 0.00 in /  0 mm
19:53 41.9 °F /  5.5 °C 40.3 °F /  4.6 °C 30.38 in /  1028.7 hPa NW 1.0 mph /  1.6 km/h 12.0 mph /  19.3 km/h 94 % 0.00 in /  0 mm
19:58 41.9 °F /  5.5 °C 40.3 °F /  4.6 °C 30.38 in /  1028.7 hPa NNW 1.0 mph /  1.6 km/h 9.0 mph /  14.5 km/h 94 % 0.00 in /  0 mm
20:00 41.9 °F /  5.5 °C 40.3 °F /  4.6 °C 30.38 in /  1028.7 hPa WNW 2.0 mph /  3.2 km/h 9.0 mph /  14.5 km/h 94 % 0.00 in /  0 mm
20:05 41.7 °F /  5.4 °C 40.1 °F /  4.5 °C 30.38 in /  1028.7 hPa West 2.0 mph /  3.2 km/h 12.0 mph /  19.3 km/h 94 % 0.00 in /  0 mm
20:10 41.7 °F /  5.4 °C 40.1 °F /  4.5 °C 30.38 in /  1028.7 hPa NNW 4.0 mph /  6.4 km/h 12.0 mph /  19.3 km/h 94 % 0.00 in /  0 mm
20:15 41.9 °F /  5.5 °C 40.3 °F /  4.6 °C 30.39 in /  1029 hPa NW 5.0 mph /  8 km/h 12.0 mph /  19.3 km/h 94 % 0.00 in /  0 mm
20:20 42.1 °F /  5.6 °C 40.5 °F /  4.7 °C 30.39 in /  1029 hPa NW 1.0 mph /  1.6 km/h 9.0 mph /  14.5 km/h 94 % 0.00 in /  0 mm
20:25 41.9 °F /  5.5 °C 40.3 °F /  4.6 °C 30.39 in /  1029 hPa NNE 4.0 mph /  6.4 km/h 9.0 mph /  14.5 km/h 94 % 0.00 in /  0 mm
20:30 41.9 °F /  5.5 °C 40.3 °F /  4.6 °C 30.40 in /  1029.3 hPa NW 4.0 mph /  6.4 km/h 9.0 mph /  14.5 km/h 94 % 0.00 in /  0 mm
20:35 41.7 °F /  5.4 °C 40.1 °F /  4.5 °C 30.39 in /  1029 hPa NNW 6.0 mph /  9.7 km/h 11.0 mph /  17.7 km/h 94 % 0.00 in /  0 mm
20:40 41.7 °F /  5.4 °C 40.1 °F /  4.5 °C 30.39 in /  1029 hPa WNW 6.0 mph /  9.7 km/h 12.0 mph /  19.3 km/h 94 % 0.00 in /  0 mm
20:45 41.7 °F /  5.4 °C 40.1 °F /  4.5 °C 30.40 in /  1029.3 hPa NNW 2.0 mph /  3.2 km/h 12.0 mph /  19.3 km/h 94 % 0.00 in /  0 mm
20:50 41.7 °F /  5.4 °C 40.1 °F /  4.5 °C 30.40 in /  1029.3 hPa NNW 1.0 mph /  1.6 km/h 12.0 mph /  19.3 km/h 94 % 0.00 in /  0 mm
20:55 41.7 °F /  5.4 °C 40.1 °F /  4.5 °C 30.39 in /  1029 hPa North 6.0 mph /  9.7 km/h 11.0 mph /  17.7 km/h 94 % 0.00 in /  0 mm
21:00 41.7 °F /  5.4 °C 40.1 °F /  4.5 °C 30.40 in /  1029.3 hPa NNW 8.0 mph /  12.9 km/h 11.0 mph /  17.7 km/h 94 % 0.00 in /  0 mm
21:05 41.7 °F /  5.4 °C 40.1 °F /  4.5 °C 30.39 in /  1029 hPa NNW 4.0 mph /  6.4 km/h 13.0 mph /  20.9 km/h 94 % 0.00 in /  0 mm
21:10 41.7 °F /  5.4 °C 40.1 °F /  4.5 °C 30.39 in /  1029 hPa North 4.0 mph /  6.4 km/h 13.0 mph /  20.9 km/h 94 % 0.00 in /  0 mm
21:15 41.7 °F /  5.4 °C 40.1 °F /  4.5 °C 30.39 in /  1029 hPa NNW 3.0 mph /  4.8 km/h 13.0 mph /  20.9 km/h 94 % 0.00 in /  0 mm
21:20 41.7 °F /  5.4 °C 40.1 °F /  4.5 °C 30.39 in /  1029 hPa NNE 3.0 mph /  4.8 km/h 10.0 mph /  16.1 km/h 94 % 0.00 in /  0 mm
21:25 41.7 °F /  5.4 °C 40.1 °F /  4.5 °C 30.39 in /  1029 hPa NNE 3.0 mph /  4.8 km/h 8.0 mph /  12.9 km/h 94 % 0.00 in /  0 mm
21:30 41.7 °F /  5.4 °C 40.5 °F /  4.7 °C 30.39 in /  1029 hPa North 3.0 mph /  4.8 km/h 7.0 mph /  11.3 km/h 95 % 0.00 in /  0 mm
21:35 41.7 °F /  5.4 °C 40.5 °F /  4.7 °C 30.39 in /  1029 hPa North 5.0 mph /  8 km/h 6.0 mph /  9.7 km/h 95 % 0.00 in /  0 mm
21:40 41.7 °F /  5.4 °C 40.5 °F /  4.7 °C 30.39 in /  1029 hPa North 2.0 mph /  3.2 km/h 6.0 mph /  9.7 km/h 95 % 0.00 in /  0 mm
21:45 41.9 °F /  5.5 °C 40.6 °F /  4.8 °C 30.39 in /  1029 hPa North 1.0 mph /  1.6 km/h 6.0 mph /  9.7 km/h 95 % 0.00 in /  0 mm
21:50 41.9 °F /  5.5 °C 40.6 °F /  4.8 °C 30.39 in /  1029 hPa NNE 1.0 mph /  1.6 km/h 8.0 mph /  12.9 km/h 95 % 0.00 in /  0 mm
21:55 41.9 °F /  5.5 °C 40.6 °F /  4.8 °C 30.40 in /  1029.3 hPa ENE 3.0 mph /  4.8 km/h 9.0 mph /  14.5 km/h 95 % 0.00 in /  0 mm
22:00 41.9 °F /  5.5 °C 40.6 °F /  4.8 °C 30.40 in /  1029.3 hPa NNW 3.0 mph /  4.8 km/h 9.0 mph /  14.5 km/h 95 % 0.00 in /  0 mm
22:05 42.1 °F /  5.6 °C 40.8 °F /  4.9 °C 30.40 in /  1029.3 hPa WNW 3.0 mph /  4.8 km/h 9.0 mph /  14.5 km/h 95 % 0.00 in /  0 mm
22:10 41.9 °F /  5.5 °C 40.6 °F /  4.8 °C 30.40 in /  1029.3 hPa NW 4.0 mph /  6.4 km/h 9.0 mph /  14.5 km/h 95 % 0.00 in /  0 mm
22:15 42.1 °F /  5.6 °C 40.8 °F /  4.9 °C 30.40 in /  1029.3 hPa NNE 6.0 mph /  9.7 km/h 9.0 mph /  14.5 km/h 95 % 0.00 in /  0 mm
22:20 41.9 °F /  5.5 °C 40.6 °F /  4.8 °C 30.39 in /  1029 hPa NNE 2.0 mph /  3.2 km/h 9.0 mph /  14.5 km/h 95 % 0.00 in /  0 mm
22:25 41.9 °F /  5.5 °C 40.6 °F /  4.8 °C 30.39 in /  1029 hPa North 3.0 mph /  4.8 km/h 13.0 mph /  20.9 km/h 95 % 0.00 in /  0 mm
22:30 41.9 °F /  5.5 °C 40.6 °F /  4.8 °C 30.39 in /  1029 hPa NNW 1.0 mph /  1.6 km/h 13.0 mph /  20.9 km/h 95 % 0.00 in /  0 mm
22:35 41.9 °F /  5.5 °C 40.6 °F /  4.8 °C 30.39 in /  1029 hPa NW 2.0 mph /  3.2 km/h 13.0 mph /  20.9 km/h 95 % 0.00 in /  0 mm
22:40 42.1 °F /  5.6 °C 40.8 °F /  4.9 °C 30.39 in /  1029 hPa NW 5.0 mph /  8 km/h 7.0 mph /  11.3 km/h 95 % 0.00 in /  0 mm
22:45 42.1 °F /  5.6 °C 40.8 °F /  4.9 °C 30.39 in /  1029 hPa NNE 4.0 mph /  6.4 km/h 12.0 mph /  19.3 km/h 95 % 0.00 in /  0 mm
22:50 42.1 °F /  5.6 °C 40.8 °F /  4.9 °C 30.39 in /  1029 hPa NW 1.0 mph /  1.6 km/h 12.0 mph /  19.3 km/h 95 % 0.00 in /  0 mm
22:55 42.1 °F /  5.6 °C 40.5 °F /  4.7 °C 30.39 in /  1029 hPa NNE 3.0 mph /  4.8 km/h 13.0 mph /  20.9 km/h 94 % 0.00 in /  0 mm
23:00 42.1 °F /  5.6 °C 40.5 °F /  4.7 °C 30.40 in /  1029.3 hPa NE 2.0 mph /  3.2 km/h 13.0 mph /  20.9 km/h 94 % 0.00 in /  0 mm
23:05 42.1 °F /  5.6 °C 40.5 °F /  4.7 °C 30.40 in /  1029.3 hPa NNW 3.0 mph /  4.8 km/h 13.0 mph /  20.9 km/h 94 % 0.00 in /  0 mm
23:10 42.1 °F /  5.6 °C 40.5 °F /  4.7 °C 30.40 in /  1029.3 hPa NNE 2.0 mph /  3.2 km/h 13.0 mph /  20.9 km/h 94 % 0.00 in /  0 mm
23:15 42.3 °F /  5.7 °C 40.6 °F /  4.8 °C 30.40 in /  1029.3 hPa NW 2.0 mph /  3.2 km/h 9.0 mph /  14.5 km/h 94 % 0.00 in /  0 mm
23:20 42.3 °F /  5.7 °C 40.6 °F /  4.8 °C 30.40 in /  1029.3 hPa North 2.0 mph /  3.2 km/h 9.0 mph /  14.5 km/h 94 % 0.00 in /  0 mm
23:25 42.3 °F /  5.7 °C 40.6 °F /  4.8 °C 30.40 in /  1029.3 hPa NNE 7.0 mph /  11.3 km/h 9.0 mph /  14.5 km/h 94 % 0.00 in /  0 mm
23:30 42.3 °F /  5.7 °C 40.6 °F /  4.8 °C 30.40 in /  1029.3 hPa NNE 7.0 mph /  11.3 km/h 8.0 mph /  12.9 km/h 94 % 0.00 in /  0 mm
23:36 42.3 °F /  5.7 °C 40.6 °F /  4.8 °C 30.40 in /  1029.3 hPa NE 1.0 mph /  1.6 km/h 9.0 mph /  14.5 km/h 94 % 0.00 in /  0 mm
23:41 42.3 °F /  5.7 °C 40.6 °F /  4.8 °C 30.40 in /  1029.3 hPa NW 3.0 mph /  4.8 km/h 9.0 mph /  14.5 km/h 94 % 0.00 in /  0 mm
23:46 42.3 °F /  5.7 °C 40.6 °F /  4.8 °C 30.40 in /  1029.3 hPa North 3.0 mph /  4.8 km/h 11.0 mph /  17.7 km/h 94 % 0.00 in /  0 mm
23:51 42.3 °F /  5.7 °C 40.6 °F /  4.8 °C 30.40 in /  1029.3 hPa NNW 4.0 mph /  6.4 km/h 11.0 mph /  17.7 km/h 94 % 0.00 in /  0 mm
23:56 42.3 °F /  5.7 °C 40.6 °F /  4.8 °C 30.40 in /  1029.3 hPa NNW 1.0 mph /  1.6 km/h 11.0 mph /  17.7 km/h 94 % 0.00 in /  0 mm
Spring, Texas: Villages of Bridgestone
Compliments of Weather Underground - 3 mb

Script developed by  Jim McMurry - jmcmurry@mwt.net Adapted for the template by  Wim van der Kuil - Leuven-Template.eu

You find our weather info also at:

UK Metoffice

WeatherCloud

Weather Underground

Mid-South Weather Network

AWEKAS

Citizen Weather Observer Program (CWOP)

HAMweather, WeatherForYou, PWS Weather

Equipment we use:

Weather-station
Davis Vantage Vue

Weather-program
Meteohub

Weather-server
Debian 7.9 x86 (Guest)

Provider
DreamHost

Davis Vantage Vue

Meteohub

Debian 7.9 x86 (Guest)

DreamHost